WetterOnline ( https://www.wetteronline.de )

Wetter aktuell Sellin

Aktuelles Wetter: Putbus/Rügen (41m)

6-stündlich | Neueste Meldungen
Ortszeit Temperatur Wetter
Do, 06.05. 20:00 7.7° C wolkenlos
Do, 06.05. 14:00 9.2° C bedeckt
Do, 06.05. 8:00 5.1° C Sprühregen
Do, 06.05. 2:00 5.3° C Sprühregen
Mi, 05.05. 20:00 5.5° C Sprühregen
Mi, 05.05. 14:00 6.7° C Sprühregen
Mi, 05.05. 8:00 7.8° C wolkig
Mi, 05.05. 2:00 7.8° C bedeckt
Ortszeit Temperatur Wetter
Do, 06.05. 21:30 5.5° C bedeckt
Do, 06.05. 21:20 5.5° C bedeckt
Do, 06.05. 21:10 5.8° C bedeckt
Do, 06.05. 21:00 6.1° C bewölkt
Do, 06.05. 20:50 6.1° C bewölkt
Do, 06.05. 20:40 6.5° C wolkig
Do, 06.05. 20:30 6.9° C leicht bewölkt
Do, 06.05. 20:00 7.7° C wolkenlos
Do, 06.05. 19:30 8.3° C wolkenlos
Do, 06.05. 19:00 8.6° C wolkenlos
Do, 06.05. 18:30 9.0° C wolkenlos
Do, 06.05. 18:00 9.2° C wolkenlos
Ortszeit Relative Feuchte Sichtweite
Do, 06.05. 20:00 64% 40 km
Do, 06.05. 14:00 60% 55 km
Do, 06.05. 8:00 79% 35 km
Do, 06.05. 2:00 88% 20 km
Mi, 05.05. 20:00 91% 35 km
Mi, 05.05. 14:00 85% 14 km
Mi, 05.05. 8:00 68% >70 km
Mi, 05.05. 2:00 73% >70 km
Ortszeit Relative Feuchte Sichtweite
Do, 06.05. 21:30 75% 50 km
Do, 06.05. 21:20 75% -
Do, 06.05. 21:10 73% -
Do, 06.05. 21:00 71% 50 km
Do, 06.05. 20:50 71% -
Do, 06.05. 20:40 68% -
Do, 06.05. 20:30 67% 50 km
Do, 06.05. 20:00 64% 40 km
Do, 06.05. 19:30 64% 45 km
Do, 06.05. 19:00 63% 45 km
Do, 06.05. 18:30 63% 35 km
Do, 06.05. 18:00 60% 40 km
Ortszeit Niederschlagsmenge Niederschlagsart
Do, 06.05. 20:00 0.2 l/m2 in 12 Std. -
Do, 06.05. 14:00 0.2 l/m2 in 6 Std. Regen
Do, 06.05. 8:00 7 l/m2 in 12 Std. Regen
Do, 06.05. 2:00 7 l/m2 in 6 Std. Regen
Mi, 05.05. 20:00 6 l/m2 in 12 Std. Regen
Mi, 05.05. 14:00 2 l/m2 in 6 Std. Regen
Mi, 05.05. 8:00 0.6 l/m2 in 12 Std. Regen
Mi, 05.05. 2:00 0.6 l/m2 in 6 Std. Regen
Ortszeit Niederschlagsmenge Niederschlagsart
Do, 06.05. 21:30 0.0 l/m2 in 1 Std. -
Do, 06.05. 21:20 keine Meldung -
Do, 06.05. 21:10 keine Meldung -
Do, 06.05. 21:00 0.0 l/m2 in 1 Std. -
Do, 06.05. 20:50 keine Meldung -
Do, 06.05. 20:40 keine Meldung -
Do, 06.05. 20:30 0.0 l/m2 in 1 Std. -
Do, 06.05. 20:00 0.0 l/m2 in 1 Std. -
Do, 06.05. 19:30 0.0 l/m2 in 1 Std. -
Do, 06.05. 19:00 0.0 l/m2 in 1 Std. -
Do, 06.05. 18:30 0.0 l/m2 in 1 Std. -
Do, 06.05. 18:00 0.0 l/m2 in 1 Std. -
Ortszeit Stärke Spitze Richtung
km/h Bft. km/h Grad Sektor
Do, 06.05. 20:00 22 4 61 280° W
Do, 06.05. 14:00 39 6 67 260° W
Do, 06.05. 8:00 29 5 61 240° SW
Do, 06.05. 2:00 32 5 65 250° W
Mi, 05.05. 20:00 28 4 61 240° SW
Mi, 05.05. 14:00 29 5 68 230° SW
Mi, 05.05. 8:00 24 4 52 230° SW
Mi, 05.05. 2:00 22 4 57 220° SW
Ortszeit Stärke Spitze Richtung
km/h Bft. km/h Grad Sektor
Do, 06.05. 21:30 11 2 25 270° W
Do, 06.05. 21:20 11 2 - 270° W
Do, 06.05. 21:10 14 3 - 280° W
Do, 06.05. 21:00 14 3 29 270° W
Do, 06.05. 20:50 14 3 - 270° W
Do, 06.05. 20:40 14 3 - 270° W
Do, 06.05. 20:30 17 3 30 280° W
Do, 06.05. 20:00 22 4 43 280° W
Do, 06.05. 19:30 24 4 43 270° W
Do, 06.05. 19:00 28 4 46 280° W
Do, 06.05. 18:30 28 4 46 280° W
Do, 06.05. 18:00 32 5 47 280° W
Ortszeit Untergrenze Bedeckung Gattung
total tief tief mittel hoch
Do, 06.05. 20:00 - 0/8 0/8 - - -
Do, 06.05. 14:00 930 m 8/8 8/8 - - -
Do, 06.05. 8:00 540 m 8/8 8/8 - - -
Do, 06.05. 2:00 540 m 7/8 7/8 - - -
Mi, 05.05. 20:00 60 m 8/8 8/8 - - -
Mi, 05.05. 14:00 510 m 7/8 7/8 - - -
Mi, 05.05. 8:00 810 m 6/8 6/8 - - -
Mi, 05.05. 2:00 840 m 8/8 8/8 - - -
Ortszeit Bedeckungsgrad in Achtel und Wolkenuntergrenze
Do, 06.05. 21:30 8(6000m) 8(6900m)
Do, 06.05. 21:20 8(6000m) 8(6900m)
Do, 06.05. 21:10 8(6000m) 8(6900m)
Do, 06.05. 21:00 7(6300m)
Do, 06.05. 20:50 7(6300m)
Do, 06.05. 20:40 6(6600m)
Do, 06.05. 20:30 2(6600m)
Do, 06.05. 20:00 keine Wolken
Do, 06.05. 19:30 keine Wolken
Do, 06.05. 19:00 keine Wolken
Do, 06.05. 18:30 keine Wolken
Do, 06.05. 18:00 keine Wolken
Ortszeit Luftdruck NN (hPa) Tendenz (hPa in 3 Std.)
Do, 06.05. 20:00 1004 + 0,7
Do, 06.05. 14:00 1003 + 1,3
Do, 06.05. 8:00 1000 + 0,8
Do, 06.05. 2:00 998 + 1,6
Mi, 05.05. 20:00 994 + 0,4
Mi, 05.05. 14:00 993 + 1,6
Mi, 05.05. 8:00 991 + 0,1
Mi, 05.05. 2:00 992 - 0,7
Ortszeit Luftdruck NN (hPa) Tendenz (hPa in 3 Std.)
Do, 06.05. 21:30 1004 + 1,0
Do, 06.05. 21:20 1004 keine Meldung
Do, 06.05. 21:10 1004 keine Meldung
Do, 06.05. 21:00 1004 + 0,7
Do, 06.05. 20:50 1004 keine Meldung
Do, 06.05. 20:40 1004 keine Meldung
Do, 06.05. 20:30 1004 + 0,7
Do, 06.05. 20:00 1004 + 0,7
Do, 06.05. 19:30 1004 + 0,7
Do, 06.05. 19:00 1003 + 0,7
Do, 06.05. 18:30 1003 + 0,5
Do, 06.05. 18:00 1003 + 0,8
Ortszeit Schneehöhe (cm)
Do, 06.05. 20:00 0
Do, 06.05. 14:00 0
Do, 06.05. 8:00 0
Do, 06.05. 2:00 0
Mi, 05.05. 20:00 0
Mi, 05.05. 14:00 0
Mi, 05.05. 8:00 0
Mi, 05.05. 2:00 0
Ortszeit Schneehöhe (cm)
Do, 06.05. 21:30 0
Do, 06.05. 21:20 0
Do, 06.05. 21:10 0
Do, 06.05. 21:00 0
Do, 06.05. 20:50 0
Do, 06.05. 20:40 0
Do, 06.05. 20:30 0
Do, 06.05. 20:00 0
Do, 06.05. 19:30 0
Do, 06.05. 19:00 0
Do, 06.05. 18:30 0
Do, 06.05. 18:00 0
Link zu dieser Seite / Seite empfehlen

Das Wetter in ...